sensor_id;sensor_type;location;lat;lon;timestamp;P1;durP1;ratioP1;P2;durP2;ratioP2
73699;SDS011;62005;50.082;8.988;2023-11-21T00:01:37;2.38;;;0.20;;
73699;SDS011;62005;50.082;8.988;2023-11-21T00:04:02;1.88;;;0.57;;
73699;SDS011;62005;50.082;8.988;2023-11-21T00:06:28;2.28;;;0.60;;
73699;SDS011;62005;50.082;8.988;2023-11-21T00:08:55;2.75;;;0.55;;
73699;SDS011;62005;50.082;8.988;2023-11-21T00:11:20;4.03;;;0.20;;
73699;SDS011;62005;50.082;8.988;2023-11-21T00:13:46;6.15;;;1.05;;
73699;SDS011;62005;50.082;8.988;2023-11-21T00:16:11;4.45;;;0.52;;
73699;SDS011;62005;50.082;8.988;2023-11-21T00:18:37;4.27;;;0.50;;
73699;SDS011;62005;50.082;8.988;2023-11-21T00:21:02;3.17;;;0.60;;
73699;SDS011;62005;50.082;8.988;2023-11-21T00:23:28;1.83;;;0.40;;
73699;SDS011;62005;50.082;8.988;2023-11-21T00:25:54;5.57;;;0.60;;
73699;SDS011;62005;50.082;8.988;2023-11-21T00:28:19;2.53;;;0.70;;
73699;SDS011;62005;50.082;8.988;2023-11-21T00:30:44;2.60;;;0.67;;
73699;SDS011;62005;50.082;8.988;2023-11-21T00:33:10;2.17;;;0.45;;
73699;SDS011;62005;50.082;8.988;2023-11-21T00:35:36;4.50;;;0.63;;
73699;SDS011;62005;50.082;8.988;2023-11-21T00:38:01;4.03;;;0.45;;
73699;SDS011;62005;50.082;8.988;2023-11-21T00:40:28;3.20;;;0.90;;
73699;SDS011;62005;50.082;8.988;2023-11-21T00:42:53;6.50;;;0.65;;
73699;SDS011;62005;50.082;8.988;2023-11-21T00:45:21;3.63;;;0.70;;
73699;SDS011;62005;50.082;8.988;2023-11-21T00:47:46;3.13;;;0.70;;
73699;SDS011;62005;50.082;8.988;2023-11-21T00:50:11;3.07;;;0.43;;
73699;SDS011;62005;50.082;8.988;2023-11-21T00:52:37;3.75;;;0.63;;
73699;SDS011;62005;50.082;8.988;2023-11-21T00:55:02;2.25;;;0.57;;
73699;SDS011;62005;50.082;8.988;2023-11-21T00:57:29;1.92;;;0.50;;
73699;SDS011;62005;50.082;8.988;2023-11-21T00:59:54;1.83;;;0.53;;
73699;SDS011;62005;50.082;8.988;2023-11-21T01:02:20;1.75;;;0.52;;
73699;SDS011;62005;50.082;8.988;2023-11-21T01:04:45;8.65;;;0.90;;
73699;SDS011;62005;50.082;8.988;2023-11-21T01:07:12;3.28;;;0.73;;
73699;SDS011;62005;50.082;8.988;2023-11-21T01:09:38;1.65;;;0.60;;
73699;SDS011;62005;50.082;8.988;2023-11-21T01:12:03;2.37;;;0.30;;
73699;SDS011;62005;50.082;8.988;2023-11-21T01:14:29;3.55;;;0.55;;
73699;SDS011;62005;50.082;8.988;2023-11-21T01:16:54;5.73;;;0.60;;
73699;SDS011;62005;50.082;8.988;2023-11-21T01:19:20;2.05;;;0.50;;
73699;SDS011;62005;50.082;8.988;2023-11-21T01:21:45;2.30;;;0.50;;
73699;SDS011;62005;50.082;8.988;2023-11-21T01:24:12;3.63;;;0.40;;
73699;SDS011;62005;50.082;8.988;2023-11-21T01:26:37;3.17;;;0.47;;
73699;SDS011;62005;50.082;8.988;2023-11-21T01:29:03;1.67;;;0.55;;
73699;SDS011;62005;50.082;8.988;2023-11-21T01:31:28;3.33;;;0.60;;
73699;SDS011;62005;50.082;8.988;2023-11-21T01:33:55;2.35;;;0.50;;
73699;SDS011;62005;50.082;8.988;2023-11-21T01:36:21;1.20;;;0.50;;
73699;SDS011;62005;50.082;8.988;2023-11-21T01:38:46;3.70;;;0.40;;
73699;SDS011;62005;50.082;8.988;2023-11-21T01:41:13;3.60;;;0.50;;
73699;SDS011;62005;50.082;8.988;2023-11-21T01:43:39;2.22;;;0.50;;
73699;SDS011;62005;50.082;8.988;2023-11-21T01:46:05;5.63;;;0.70;;
73699;SDS011;62005;50.082;8.988;2023-11-21T01:48:31;3.53;;;0.73;;
73699;SDS011;62005;50.082;8.988;2023-11-21T01:50:57;4.03;;;0.40;;
73699;SDS011;62005;50.082;8.988;2023-11-21T01:53:24;2.58;;;0.47;;
73699;SDS011;62005;50.082;8.988;2023-11-21T01:55:50;3.58;;;0.85;;
73699;SDS011;62005;50.082;8.988;2023-11-21T01:58:16;3.95;;;0.77;;
73699;SDS011;62005;50.082;8.988;2023-11-21T02:00:42;2.33;;;0.60;;
73699;SDS011;62005;50.082;8.988;2023-11-21T02:03:08;2.67;;;0.60;;
73699;SDS011;62005;50.082;8.988;2023-11-21T02:05:35;2.95;;;0.80;;
73699;SDS011;62005;50.082;8.988;2023-11-21T02:08:01;2.97;;;0.63;;
73699;SDS011;62005;50.082;8.988;2023-11-21T02:10:27;3.42;;;0.52;;
73699;SDS011;62005;50.082;8.988;2023-11-21T02:12:54;4.40;;;0.63;;
73699;SDS011;62005;50.082;8.988;2023-11-21T02:15:22;3.28;;;0.63;;
73699;SDS011;62005;50.082;8.988;2023-11-21T02:17:51;4.25;;;0.82;;
73699;SDS011;62005;50.082;8.988;2023-11-21T02:20:17;3.90;;;0.52;;
73699;SDS011;62005;50.082;8.988;2023-11-21T02:22:44;2.22;;;0.60;;
73699;SDS011;62005;50.082;8.988;2023-11-21T02:25:14;3.88;;;0.90;;
73699;SDS011;62005;50.082;8.988;2023-11-21T02:27:39;3.47;;;0.57;;
73699;SDS011;62005;50.082;8.988;2023-11-21T02:30:04;4.90;;;1.23;;
73699;SDS011;62005;50.082;8.988;2023-11-21T02:32:32;3.45;;;0.90;;
73699;SDS011;62005;50.082;8.988;2023-11-21T02:34:58;3.13;;;0.75;;
73699;SDS011;62005;50.082;8.988;2023-11-21T02:37:28;2.30;;;0.63;;
73699;SDS011;62005;50.082;8.988;2023-11-21T02:39:53;2.30;;;0.70;;
73699;SDS011;62005;50.082;8.988;2023-11-21T02:42:18;4.40;;;0.83;;
73699;SDS011;62005;50.082;8.988;2023-11-21T02:44:44;3.53;;;0.57;;
73699;SDS011;62005;50.082;8.988;2023-11-21T02:47:09;4.35;;;0.85;;
73699;SDS011;62005;50.082;8.988;2023-11-21T02:49:34;4.32;;;0.50;;
73699;SDS011;62005;50.082;8.988;2023-11-21T02:52:00;2.05;;;0.57;;
73699;SDS011;62005;50.082;8.988;2023-11-21T02:54:26;3.80;;;0.55;;
73699;SDS011;62005;50.082;8.988;2023-11-21T02:56:52;4.45;;;0.40;;
73699;SDS011;62005;50.082;8.988;2023-11-21T02:59:17;3.33;;;0.73;;
73699;SDS011;62005;50.082;8.988;2023-11-21T03:01:44;3.00;;;0.65;;
73699;SDS011;62005;50.082;8.988;2023-11-21T03:04:10;1.98;;;0.43;;
73699;SDS011;62005;50.082;8.988;2023-11-21T03:06:35;3.05;;;0.60;;
73699;SDS011;62005;50.082;8.988;2023-11-21T03:09:01;3.27;;;0.60;;
73699;SDS011;62005;50.082;8.988;2023-11-21T03:11:26;4.15;;;0.55;;
73699;SDS011;62005;50.082;8.988;2023-11-21T03:13:51;1.63;;;0.50;;
73699;SDS011;62005;50.082;8.988;2023-11-21T03:16:18;5.45;;;0.45;;
73699;SDS011;62005;50.082;8.988;2023-11-21T03:18:44;3.58;;;0.68;;
73699;SDS011;62005;50.082;8.988;2023-11-21T03:21:09;2.03;;;0.52;;
73699;SDS011;62005;50.082;8.988;2023-11-21T03:23:35;1.77;;;0.50;;
73699;SDS011;62005;50.082;8.988;2023-11-21T03:26:01;2.55;;;0.32;;
73699;SDS011;62005;50.082;8.988;2023-11-21T03:28:26;0.88;;;0.40;;
73699;SDS011;62005;50.082;8.988;2023-11-21T03:30:52;2.20;;;0.82;;
73699;SDS011;62005;50.082;8.988;2023-11-21T03:33:18;3.08;;;0.40;;
73699;SDS011;62005;50.082;8.988;2023-11-21T03:35:43;2.17;;;0.63;;
73699;SDS011;62005;50.082;8.988;2023-11-21T03:38:10;3.60;;;0.45;;
73699;SDS011;62005;50.082;8.988;2023-11-21T03:40:35;2.20;;;0.50;;
73699;SDS011;62005;50.082;8.988;2023-11-21T03:43:01;4.40;;;0.70;;
73699;SDS011;62005;50.082;8.988;2023-11-21T03:45:26;4.75;;;0.70;;
73699;SDS011;62005;50.082;8.988;2023-11-21T03:47:51;2.23;;;0.53;;
73699;SDS011;62005;50.082;8.988;2023-11-21T03:50:17;4.38;;;0.93;;
73699;SDS011;62005;50.082;8.988;2023-11-21T03:52:42;2.08;;;0.32;;
73699;SDS011;62005;50.082;8.988;2023-11-21T03:55:08;1.67;;;0.57;;
73699;SDS011;62005;50.082;8.988;2023-11-21T03:57:33;4.90;;;0.60;;
73699;SDS011;62005;50.082;8.988;2023-11-21T03:59:59;2.67;;;0.50;;
73699;SDS011;62005;50.082;8.988;2023-11-21T04:02:24;2.22;;;0.55;;
73699;SDS011;62005;50.082;8.988;2023-11-21T04:04:51;3.45;;;0.80;;
73699;SDS011;62005;50.082;8.988;2023-11-21T04:07:16;2.42;;;0.45;;
73699;SDS011;62005;50.082;8.988;2023-11-21T04:09:42;3.05;;;0.73;;
73699;SDS011;62005;50.082;8.988;2023-11-21T04:12:08;2.33;;;0.43;;
73699;SDS011;62005;50.082;8.988;2023-11-21T04:14:36;4.57;;;0.50;;
73699;SDS011;62005;50.082;8.988;2023-11-21T04:17:01;3.90;;;0.53;;
73699;SDS011;62005;50.082;8.988;2023-11-21T04:21:54;6.57;;;0.67;;
73699;SDS011;62005;50.082;8.988;2023-11-21T04:24:19;1.97;;;0.80;;
73699;SDS011;62005;50.082;8.988;2023-11-21T04:26:44;1.60;;;0.50;;
73699;SDS011;62005;50.082;8.988;2023-11-21T04:29:10;2.00;;;0.43;;
73699;SDS011;62005;50.082;8.988;2023-11-21T04:31:35;4.77;;;0.40;;
73699;SDS011;62005;50.082;8.988;2023-11-21T04:34:00;2.03;;;0.60;;
73699;SDS011;62005;50.082;8.988;2023-11-21T04:36:26;3.00;;;0.43;;
73699;SDS011;62005;50.082;8.988;2023-11-21T04:38:51;5.90;;;0.82;;
73699;SDS011;62005;50.082;8.988;2023-11-21T04:41:17;2.25;;;0.73;;
73699;SDS011;62005;50.082;8.988;2023-11-21T04:43:43;2.47;;;0.80;;
73699;SDS011;62005;50.082;8.988;2023-11-21T04:46:08;4.53;;;0.70;;
73699;SDS011;62005;50.082;8.988;2023-11-21T04:48:33;2.40;;;0.40;;
73699;SDS011;62005;50.082;8.988;2023-11-21T04:50:59;3.63;;;0.50;;
73699;SDS011;62005;50.082;8.988;2023-11-21T04:53:24;2.10;;;0.37;;
73699;SDS011;62005;50.082;8.988;2023-11-21T04:55:49;1.53;;;0.40;;
73699;SDS011;62005;50.082;8.988;2023-11-21T04:58:15;3.07;;;0.63;;
73699;SDS011;62005;50.082;8.988;2023-11-21T05:00:40;2.78;;;0.50;;
73699;SDS011;62005;50.082;8.988;2023-11-21T05:03:06;1.57;;;0.67;;
73699;SDS011;62005;50.082;8.988;2023-11-21T05:05:32;1.88;;;0.40;;
73699;SDS011;62005;50.082;8.988;2023-11-21T05:07:59;1.23;;;0.40;;
73699;SDS011;62005;50.082;8.988;2023-11-21T05:10:24;1.80;;;0.50;;
73699;SDS011;62005;50.082;8.988;2023-11-21T05:12:50;2.42;;;0.75;;
73699;SDS011;62005;50.082;8.988;2023-11-21T05:15:15;1.30;;;0.33;;
73699;SDS011;62005;50.082;8.988;2023-11-21T05:17:42;1.80;;;0.65;;
73699;SDS011;62005;50.082;8.988;2023-11-21T05:20:12;4.22;;;0.52;;
73699;SDS011;62005;50.082;8.988;2023-11-21T05:22:39;2.10;;;0.52;;
73699;SDS011;62005;50.082;8.988;2023-11-21T05:25:05;2.03;;;0.30;;
73699;SDS011;62005;50.082;8.988;2023-11-21T05:27:35;3.08;;;0.70;;
73699;SDS011;62005;50.082;8.988;2023-11-21T05:30:01;1.27;;;0.52;;
73699;SDS011;62005;50.082;8.988;2023-11-21T05:32:30;2.17;;;0.63;;
73699;SDS011;62005;50.082;8.988;2023-11-21T05:34:55;2.10;;;0.57;;
73699;SDS011;62005;50.082;8.988;2023-11-21T05:37:21;1.43;;;0.63;;
73699;SDS011;62005;50.082;8.988;2023-11-21T05:39:46;2.67;;;0.87;;
73699;SDS011;62005;50.082;8.988;2023-11-21T05:42:11;5.18;;;1.00;;
73699;SDS011;62005;50.082;8.988;2023-11-21T05:44:37;5.43;;;0.82;;
73699;SDS011;62005;50.082;8.988;2023-11-21T05:47:07;2.03;;;0.90;;
73699;SDS011;62005;50.082;8.988;2023-11-21T05:49:32;2.05;;;0.77;;
73699;SDS011;62005;50.082;8.988;2023-11-21T05:51:58;2.17;;;0.82;;
73699;SDS011;62005;50.082;8.988;2023-11-21T05:54:24;2.55;;;1.13;;
73699;SDS011;62005;50.082;8.988;2023-11-21T05:56:51;3.05;;;0.82;;
73699;SDS011;62005;50.082;8.988;2023-11-21T05:59:16;3.28;;;1.60;;
73699;SDS011;62005;50.082;8.988;2023-11-21T06:01:41;7.97;;;1.40;;
73699;SDS011;62005;50.082;8.988;2023-11-21T06:04:07;3.07;;;1.30;;
73699;SDS011;62005;50.082;8.988;2023-11-21T06:06:35;2.72;;;1.30;;
73699;SDS011;62005;50.082;8.988;2023-11-21T06:09:01;2.50;;;1.15;;
73699;SDS011;62005;50.082;8.988;2023-11-21T06:11:27;2.78;;;1.23;;
73699;SDS011;62005;50.082;8.988;2023-11-21T06:13:52;3.22;;;1.45;;
73699;SDS011;62005;50.082;8.988;2023-11-21T06:16:20;4.38;;;1.52;;
73699;SDS011;62005;50.082;8.988;2023-11-21T06:18:46;4.30;;;1.55;;
73699;SDS011;62005;50.082;8.988;2023-11-21T06:21:11;3.55;;;1.40;;
73699;SDS011;62005;50.082;8.988;2023-11-21T06:23:37;6.80;;;1.63;;
73699;SDS011;62005;50.082;8.988;2023-11-21T06:26:03;3.75;;;1.33;;
73699;SDS011;62005;50.082;8.988;2023-11-21T06:28:29;4.60;;;2.05;;
73699;SDS011;62005;50.082;8.988;2023-11-21T06:30:55;4.80;;;2.05;;
73699;SDS011;62005;50.082;8.988;2023-11-21T06:33:22;4.55;;;1.90;;
73699;SDS011;62005;50.082;8.988;2023-11-21T06:35:47;4.30;;;1.77;;
73699;SDS011;62005;50.082;8.988;2023-11-21T06:38:12;5.40;;;2.00;;
73699;SDS011;62005;50.082;8.988;2023-11-21T06:40:38;4.35;;;2.30;;
73699;SDS011;62005;50.082;8.988;2023-11-21T06:43:03;4.93;;;1.98;;
73699;SDS011;62005;50.082;8.988;2023-11-21T06:45:30;5.75;;;1.95;;
73699;SDS011;62005;50.082;8.988;2023-11-21T06:47:55;5.53;;;2.30;;
73699;SDS011;62005;50.082;8.988;2023-11-21T06:50:20;4.77;;;2.63;;
73699;SDS011;62005;50.082;8.988;2023-11-21T06:52:46;4.10;;;2.35;;
73699;SDS011;62005;50.082;8.988;2023-11-21T06:55:11;5.32;;;2.40;;
73699;SDS011;62005;50.082;8.988;2023-11-21T06:57:37;6.10;;;3.05;;
73699;SDS011;62005;50.082;8.988;2023-11-21T07:00:03;4.80;;;2.38;;
73699;SDS011;62005;50.082;8.988;2023-11-21T07:02:29;5.25;;;2.83;;
73699;SDS011;62005;50.082;8.988;2023-11-21T07:04:55;7.90;;;3.10;;
73699;SDS011;62005;50.082;8.988;2023-11-21T07:07:20;7.30;;;3.20;;
73699;SDS011;62005;50.082;8.988;2023-11-21T07:09:45;6.93;;;3.17;;
73699;SDS011;62005;50.082;8.988;2023-11-21T07:12:11;5.93;;;2.67;;
73699;SDS011;62005;50.082;8.988;2023-11-21T07:14:36;7.68;;;2.75;;
73699;SDS011;62005;50.082;8.988;2023-11-21T07:17:04;5.78;;;3.28;;
73699;SDS011;62005;50.082;8.988;2023-11-21T07:19:29;4.90;;;2.42;;
73699;SDS011;62005;50.082;8.988;2023-11-21T07:21:55;6.97;;;2.97;;
73699;SDS011;62005;50.082;8.988;2023-11-21T07:24:21;5.10;;;2.97;;
73699;SDS011;62005;50.082;8.988;2023-11-21T07:26:47;8.43;;;3.20;;
73699;SDS011;62005;50.082;8.988;2023-11-21T07:29:13;5.18;;;2.50;;
73699;SDS011;62005;50.082;8.988;2023-11-21T07:31:38;5.50;;;3.07;;
73699;SDS011;62005;50.082;8.988;2023-11-21T07:34:04;5.68;;;2.53;;
73699;SDS011;62005;50.082;8.988;2023-11-21T07:36:30;5.35;;;2.67;;
73699;SDS011;62005;50.082;8.988;2023-11-21T07:38:56;8.20;;;2.92;;
73699;SDS011;62005;50.082;8.988;2023-11-21T07:41:22;5.72;;;2.47;;
73699;SDS011;62005;50.082;8.988;2023-11-21T07:43:47;7.85;;;2.55;;
73699;SDS011;62005;50.082;8.988;2023-11-21T07:46:13;6.73;;;2.50;;
73699;SDS011;62005;50.082;8.988;2023-11-21T07:48:39;4.57;;;1.90;;
73699;SDS011;62005;50.082;8.988;2023-11-21T07:51:06;6.55;;;2.38;;
73699;SDS011;62005;50.082;8.988;2023-11-21T07:53:34;5.97;;;2.22;;
73699;SDS011;62005;50.082;8.988;2023-11-21T07:56:03;3.45;;;1.55;;
73699;SDS011;62005;50.082;8.988;2023-11-21T07:58:34;10.43;;;2.58;;
73699;SDS011;62005;50.082;8.988;2023-11-21T08:01:05;4.75;;;2.03;;
73699;SDS011;62005;50.082;8.988;2023-11-21T08:03:31;8.32;;;2.25;;
73699;SDS011;62005;50.082;8.988;2023-11-21T08:05:57;3.17;;;1.48;;
73699;SDS011;62005;50.082;8.988;2023-11-21T08:08:23;5.55;;;2.00;;
73699;SDS011;62005;50.082;8.988;2023-11-21T08:10:49;7.05;;;1.80;;
73699;SDS011;62005;50.082;8.988;2023-11-21T08:13:21;4.38;;;1.98;;
73699;SDS011;62005;50.082;8.988;2023-11-21T08:15:47;6.57;;;1.70;;
73699;SDS011;62005;50.082;8.988;2023-11-21T08:18:13;4.80;;;2.30;;
73699;SDS011;62005;50.082;8.988;2023-11-21T08:20:39;3.92;;;1.48;;
73699;SDS011;62005;50.082;8.988;2023-11-21T08:23:05;3.95;;;1.35;;
73699;SDS011;62005;50.082;8.988;2023-11-21T08:25:31;3.40;;;1.73;;
73699;SDS011;62005;50.082;8.988;2023-11-21T08:27:57;4.43;;;1.60;;
73699;SDS011;62005;50.082;8.988;2023-11-21T08:30:23;4.07;;;1.35;;
73699;SDS011;62005;50.082;8.988;2023-11-21T08:32:49;3.28;;;1.13;;
73699;SDS011;62005;50.082;8.988;2023-11-21T08:35:16;2.15;;;1.00;;
73699;SDS011;62005;50.082;8.988;2023-11-21T08:37:41;2.50;;;1.17;;
73699;SDS011;62005;50.082;8.988;2023-11-21T08:40:07;2.57;;;1.20;;
73699;SDS011;62005;50.082;8.988;2023-11-21T08:42:37;4.55;;;1.05;;
73699;SDS011;62005;50.082;8.988;2023-11-21T08:45:03;2.57;;;1.17;;
73699;SDS011;62005;50.082;8.988;2023-11-21T08:47:29;2.08;;;0.73;;
73699;SDS011;62005;50.082;8.988;2023-11-21T08:49:55;3.42;;;0.73;;
73699;SDS011;62005;50.082;8.988;2023-11-21T08:52:20;2.38;;;0.98;;
73699;SDS011;62005;50.082;8.988;2023-11-21T08:54:47;2.53;;;0.70;;
73699;SDS011;62005;50.082;8.988;2023-11-21T08:57:23;2.45;;;0.60;;
73699;SDS011;62005;50.082;8.988;2023-11-21T08:59:49;2.08;;;0.70;;
73699;SDS011;62005;50.082;8.988;2023-11-21T09:02:20;1.58;;;0.57;;
73699;SDS011;62005;50.082;8.988;2023-11-21T09:04:46;1.85;;;0.65;;
73699;SDS011;62005;50.082;8.988;2023-11-21T09:07:12;2.50;;;0.60;;
73699;SDS011;62005;50.082;8.988;2023-11-21T09:09:37;2.67;;;1.17;;
73699;SDS011;62005;50.082;8.988;2023-11-21T09:12:02;2.80;;;0.90;;
73699;SDS011;62005;50.082;8.988;2023-11-21T09:14:28;1.40;;;0.50;;
73699;SDS011;62005;50.082;8.988;2023-11-21T09:16:53;3.37;;;0.50;;
73699;SDS011;62005;50.082;8.988;2023-11-21T09:19:19;2.63;;;0.85;;
73699;SDS011;62005;50.082;8.988;2023-11-21T09:21:44;3.60;;;0.47;;
73699;SDS011;62005;50.082;8.988;2023-11-21T09:24:09;3.13;;;0.70;;
73699;SDS011;62005;50.082;8.988;2023-11-21T09:26:35;3.33;;;0.90;;
73699;SDS011;62005;50.082;8.988;2023-11-21T09:29:00;2.27;;;1.00;;
73699;SDS011;62005;50.082;8.988;2023-11-21T09:31:27;3.95;;;1.58;;
73699;SDS011;62005;50.082;8.988;2023-11-21T09:33:52;3.83;;;1.30;;
73699;SDS011;62005;50.082;8.988;2023-11-21T09:36:18;3.90;;;1.20;;
73699;SDS011;62005;50.082;8.988;2023-11-21T09:38:43;3.00;;;1.23;;
73699;SDS011;62005;50.082;8.988;2023-11-21T09:41:11;5.03;;;1.30;;
73699;SDS011;62005;50.082;8.988;2023-11-21T09:43:46;3.72;;;1.55;;
73699;SDS011;62005;50.082;8.988;2023-11-21T09:46:13;5.72;;;1.60;;
73699;SDS011;62005;50.082;8.988;2023-11-21T09:48:44;5.50;;;1.52;;
73699;SDS011;62005;50.082;8.988;2023-11-21T09:51:16;4.13;;;1.40;;
73699;SDS011;62005;50.082;8.988;2023-11-21T09:53:45;3.13;;;1.52;;
73699;SDS011;62005;50.082;8.988;2023-11-21T09:56:14;4.03;;;1.38;;
73699;SDS011;62005;50.082;8.988;2023-11-21T09:58:44;5.38;;;1.25;;
73699;SDS011;62005;50.082;8.988;2023-11-21T10:01:12;4.57;;;2.13;;
73699;SDS011;62005;50.082;8.988;2023-11-21T10:03:41;4.50;;;1.90;;
73699;SDS011;62005;50.082;8.988;2023-11-21T10:06:07;4.93;;;1.30;;
73699;SDS011;62005;50.082;8.988;2023-11-21T10:08:33;5.47;;;2.42;;
73699;SDS011;62005;50.082;8.988;2023-11-21T10:11:01;5.22;;;1.58;;
73699;SDS011;62005;50.082;8.988;2023-11-21T10:13:28;5.28;;;1.50;;
73699;SDS011;62005;50.082;8.988;2023-11-21T10:15:55;4.38;;;1.65;;
73699;SDS011;62005;50.082;8.988;2023-11-21T10:18:21;4.93;;;1.88;;
73699;SDS011;62005;50.082;8.988;2023-11-21T10:20:50;4.00;;;1.52;;
73699;SDS011;62005;50.082;8.988;2023-11-21T10:23:19;4.05;;;1.48;;
73699;SDS011;62005;50.082;8.988;2023-11-21T10:25:46;5.68;;;2.25;;
73699;SDS011;62005;50.082;8.988;2023-11-21T10:28:11;5.07;;;1.87;;
73699;SDS011;62005;50.082;8.988;2023-11-21T10:30:37;4.00;;;1.43;;
73699;SDS011;62005;50.082;8.988;2023-11-21T10:33:04;4.32;;;1.92;;
73699;SDS011;62005;50.082;8.988;2023-11-21T10:38:12;5.20;;;1.40;;
73699;SDS011;62005;50.082;8.988;2023-11-21T10:40:39;4.13;;;1.33;;
73699;SDS011;62005;50.082;8.988;2023-11-21T10:43:06;5.47;;;1.58;;
73699;SDS011;62005;50.082;8.988;2023-11-21T10:45:36;4.75;;;1.60;;
73699;SDS011;62005;50.082;8.988;2023-11-21T10:50:40;3.70;;;1.40;;
73699;SDS011;62005;50.082;8.988;2023-11-21T10:53:05;7.97;;;1.60;;
73699;SDS011;62005;50.082;8.988;2023-11-21T10:55:32;6.05;;;2.05;;
73699;SDS011;62005;50.082;8.988;2023-11-21T11:00:27;9.07;;;1.70;;
73699;SDS011;62005;50.082;8.988;2023-11-21T11:02:54;4.55;;;1.48;;
73699;SDS011;62005;50.082;8.988;2023-11-21T11:05:20;6.30;;;1.95;;
73699;SDS011;62005;50.082;8.988;2023-11-21T11:07:54;3.60;;;1.00;;
73699;SDS011;62005;50.082;8.988;2023-11-21T11:10:27;6.05;;;1.40;;
73699;SDS011;62005;50.082;8.988;2023-11-21T11:12:54;5.80;;;1.15;;
73699;SDS011;62005;50.082;8.988;2023-11-21T11:15:22;4.32;;;1.10;;
73699;SDS011;62005;50.082;8.988;2023-11-21T11:17:48;2.42;;;1.00;;
73699;SDS011;62005;50.082;8.988;2023-11-21T11:20:14;4.30;;;1.08;;
73699;SDS011;62005;50.082;8.988;2023-11-21T11:23:08;4.15;;;1.17;;
73699;SDS011;62005;50.082;8.988;2023-11-21T11:25:47;4.07;;;0.85;;
73699;SDS011;62005;50.082;8.988;2023-11-21T11:28:35;4.88;;;1.15;;
73699;SDS011;62005;50.082;8.988;2023-11-21T11:31:33;2.47;;;0.77;;
73699;SDS011;62005;50.082;8.988;2023-11-21T11:37:01;3.25;;;0.90;;
73699;SDS011;62005;50.082;8.988;2023-11-21T11:39:34;3.40;;;0.75;;
73699;SDS011;62005;50.082;8.988;2023-11-21T11:42:02;3.00;;;0.70;;
73699;SDS011;62005;50.082;8.988;2023-11-21T11:47:19;2.03;;;0.57;;
73699;SDS011;62005;50.082;8.988;2023-11-21T11:49:57;2.70;;;0.73;;
73699;SDS011;62005;50.082;8.988;2023-11-21T11:52:36;3.78;;;1.05;;
73699;SDS011;62005;50.082;8.988;2023-11-21T11:55:03;3.63;;;1.00;;
73699;SDS011;62005;50.082;8.988;2023-11-21T11:57:30;3.75;;;1.27;;
73699;SDS011;62005;50.082;8.988;2023-11-21T12:00:10;2.88;;;1.10;;
73699;SDS011;62005;50.082;8.988;2023-11-21T12:02:50;2.22;;;0.77;;
73699;SDS011;62005;50.082;8.988;2023-11-21T12:05:18;2.13;;;0.70;;
73699;SDS011;62005;50.082;8.988;2023-11-21T12:10:12;3.75;;;1.15;;
73699;SDS011;62005;50.082;8.988;2023-11-21T12:12:48;4.93;;;1.10;;
73699;SDS011;62005;50.082;8.988;2023-11-21T12:15:14;4.30;;;0.90;;
73699;SDS011;62005;50.082;8.988;2023-11-21T12:17:41;3.85;;;0.57;;
73699;SDS011;62005;50.082;8.988;2023-11-21T12:20:08;6.57;;;0.95;;
73699;SDS011;62005;50.082;8.988;2023-11-21T12:22:58;7.10;;;1.02;;
73699;SDS011;62005;50.082;8.988;2023-11-21T12:25:26;3.92;;;1.13;;
73699;SDS011;62005;50.082;8.988;2023-11-21T12:27:54;3.35;;;0.85;;
73699;SDS011;62005;50.082;8.988;2023-11-21T12:30:21;2.60;;;0.80;;
73699;SDS011;62005;50.082;8.988;2023-11-21T12:32:49;6.68;;;1.38;;
73699;SDS011;62005;50.082;8.988;2023-11-21T12:35:16;5.53;;;1.58;;
73699;SDS011;62005;50.082;8.988;2023-11-21T12:37:44;5.28;;;1.02;;
73699;SDS011;62005;50.082;8.988;2023-11-21T12:40:12;4.80;;;1.13;;
73699;SDS011;62005;50.082;8.988;2023-11-21T12:42:43;3.90;;;1.17;;
73699;SDS011;62005;50.082;8.988;2023-11-21T12:45:18;5.68;;;1.48;;
73699;SDS011;62005;50.082;8.988;2023-11-21T12:47:49;5.80;;;1.10;;
73699;SDS011;62005;50.082;8.988;2023-11-21T12:50:18;5.43;;;1.17;;
73699;SDS011;62005;50.082;8.988;2023-11-21T12:52:48;4.90;;;1.02;;
73699;SDS011;62005;50.082;8.988;2023-11-21T12:55:18;5.15;;;1.33;;
73699;SDS011;62005;50.082;8.988;2023-11-21T12:57:48;7.30;;;1.65;;
73699;SDS011;62005;50.082;8.988;2023-11-21T13:00:19;6.47;;;1.52;;
73699;SDS011;62005;50.082;8.988;2023-11-21T13:02:55;5.25;;;1.30;;
73699;SDS011;62005;50.082;8.988;2023-11-21T13:05:30;7.25;;;2.22;;
73699;SDS011;62005;50.082;8.988;2023-11-21T13:07:59;6.10;;;2.90;;
73699;SDS011;62005;50.082;8.988;2023-11-21T13:10:28;5.38;;;1.83;;
73699;SDS011;62005;50.082;8.988;2023-11-21T13:12:58;7.38;;;1.90;;
73699;SDS011;62005;50.082;8.988;2023-11-21T13:15:25;5.43;;;1.48;;
73699;SDS011;62005;50.082;8.988;2023-11-21T13:18:00;5.75;;;1.35;;
73699;SDS011;62005;50.082;8.988;2023-11-21T13:20:25;5.38;;;1.55;;
73699;SDS011;62005;50.082;8.988;2023-11-21T13:22:54;4.72;;;1.73;;
73699;SDS011;62005;50.082;8.988;2023-11-21T13:25:28;4.75;;;1.67;;
73699;SDS011;62005;50.082;8.988;2023-11-21T13:27:54;3.97;;;1.65;;
73699;SDS011;62005;50.082;8.988;2023-11-21T13:30:20;5.75;;;1.45;;
73699;SDS011;62005;50.082;8.988;2023-11-21T13:32:51;3.58;;;1.52;;
73699;SDS011;62005;50.082;8.988;2023-11-21T13:35:17;4.72;;;1.58;;
73699;SDS011;62005;50.082;8.988;2023-11-21T13:37:47;1.98;;;0.82;;
73699;SDS011;62005;50.082;8.988;2023-11-21T13:40:14;5.05;;;1.63;;
73699;SDS011;62005;50.082;8.988;2023-11-21T13:42:44;5.13;;;0.95;;
73699;SDS011;62005;50.082;8.988;2023-11-21T13:45:10;4.07;;;1.42;;
73699;SDS011;62005;50.082;8.988;2023-11-21T13:47:37;3.05;;;1.60;;
73699;SDS011;62005;50.082;8.988;2023-11-21T13:50:03;2.75;;;1.10;;
73699;SDS011;62005;50.082;8.988;2023-11-21T13:52:31;3.75;;;1.00;;
73699;SDS011;62005;50.082;8.988;2023-11-21T13:54:58;4.82;;;1.15;;
73699;SDS011;62005;50.082;8.988;2023-11-21T13:57:26;3.22;;;1.20;;
73699;SDS011;62005;50.082;8.988;2023-11-21T13:59:52;4.07;;;1.15;;
73699;SDS011;62005;50.082;8.988;2023-11-21T14:02:18;4.53;;;1.38;;
73699;SDS011;62005;50.082;8.988;2023-11-21T14:04:44;5.07;;;1.65;;
73699;SDS011;62005;50.082;8.988;2023-11-21T14:07:18;5.22;;;1.77;;
73699;SDS011;62005;50.082;8.988;2023-11-21T14:10:00;5.85;;;1.60;;
73699;SDS011;62005;50.082;8.988;2023-11-21T14:12:26;5.75;;;1.83;;
73699;SDS011;62005;50.082;8.988;2023-11-21T14:14:51;5.03;;;1.30;;
73699;SDS011;62005;50.082;8.988;2023-11-21T14:17:17;5.90;;;1.70;;
73699;SDS011;62005;50.082;8.988;2023-11-21T14:19:42;2.27;;;1.07;;
73699;SDS011;62005;50.082;8.988;2023-11-21T14:22:11;4.95;;;1.45;;
73699;SDS011;62005;50.082;8.988;2023-11-21T14:24:36;3.65;;;1.58;;
73699;SDS011;62005;50.082;8.988;2023-11-21T14:27:02;5.82;;;1.63;;
73699;SDS011;62005;50.082;8.988;2023-11-21T14:29:28;8.05;;;1.13;;
73699;SDS011;62005;50.082;8.988;2023-11-21T14:31:54;4.40;;;1.30;;
73699;SDS011;62005;50.082;8.988;2023-11-21T14:34:22;4.50;;;1.65;;
73699;SDS011;62005;50.082;8.988;2023-11-21T14:36:48;8.73;;;1.60;;
73699;SDS011;62005;50.082;8.988;2023-11-21T14:39:14;5.80;;;2.00;;
73699;SDS011;62005;50.082;8.988;2023-11-21T14:41:48;6.00;;;2.28;;
73699;SDS011;62005;50.082;8.988;2023-11-21T14:44:14;7.85;;;2.13;;
73699;SDS011;62005;50.082;8.988;2023-11-21T14:46:40;5.72;;;1.92;;
73699;SDS011;62005;50.082;8.988;2023-11-21T14:49:10;6.13;;;2.25;;
73699;SDS011;62005;50.082;8.988;2023-11-21T14:51:48;4.78;;;1.83;;
73699;SDS011;62005;50.082;8.988;2023-11-21T14:54:17;6.05;;;1.70;;
73699;SDS011;62005;50.082;8.988;2023-11-21T14:56:52;4.03;;;1.58;;
73699;SDS011;62005;50.082;8.988;2023-11-21T14:59:18;4.65;;;1.65;;
73699;SDS011;62005;50.082;8.988;2023-11-21T15:01:43;5.63;;;1.30;;
73699;SDS011;62005;50.082;8.988;2023-11-21T15:04:20;4.72;;;1.60;;
73699;SDS011;62005;50.082;8.988;2023-11-21T15:07:05;3.95;;;1.75;;